Terminal Aerodrome Forecast
Issued by NWS Blacksburg, VA

Home | Current Version | Previous Version | Text Only | Print | Product List | Glossary On
Versions: 1 2 3 4 5 6 7 8 9 10 11 12 13 14 15 16 17 18 19 20 21 22 23 24
434
FTUS41 KRNK 082335
TAFROA
TAF
KROA 082335Z 0900/0924 17003KT P6SM SCT025 OVC110
      TEMPO 0900/0902 4SM -SHRASN OVC025
     FM090300 26005KT P6SM SCT025 OVC080
     FM091300 29012G22KT P6SM BKN040=

USA.gov is the U.S. government's official web portal to all federal, state and local government web resources and services.